sensor_id;sensor_type;location;lat;lon;timestamp;pressure;altitude;pressure_sealevel;temperature;humidity
83359;BME280;73273;50.882;5.984;2023-12-20T00:01:00;100473.84;;;6.68;100.00
83359;BME280;73273;50.882;5.984;2023-12-20T00:03:26;100475.53;;;6.56;100.00
83359;BME280;73273;50.882;5.984;2023-12-20T00:05:51;100479.69;;;6.50;100.00
83359;BME280;73273;50.882;5.984;2023-12-20T00:08:17;100491.78;;;6.50;100.00
83359;BME280;73273;50.882;5.984;2023-12-20T00:10:43;100487.06;;;6.40;100.00
83359;BME280;73273;50.882;5.984;2023-12-20T00:13:09;100479.34;;;6.40;100.00
83359;BME280;73273;50.882;5.984;2023-12-20T00:15:34;100480.50;;;6.44;100.00
83359;BME280;73273;50.882;5.984;2023-12-20T00:18:00;100482.31;;;6.43;100.00
83359;BME280;73273;50.882;5.984;2023-12-20T00:20:26;100497.97;;;6.42;100.00
83359;BME280;73273;50.882;5.984;2023-12-20T00:22:51;100504.91;;;6.48;100.00
83359;BME280;73273;50.882;5.984;2023-12-20T00:25:17;100511.97;;;6.53;100.00
83359;BME280;73273;50.882;5.984;2023-12-20T00:27:43;100513.00;;;6.45;100.00
83359;BME280;73273;50.882;5.984;2023-12-20T00:30:09;100519.13;;;6.51;100.00
83359;BME280;73273;50.882;5.984;2023-12-20T00:32:35;100514.63;;;6.39;100.00
83359;BME280;73273;50.882;5.984;2023-12-20T00:35:01;100516.44;;;6.39;100.00
83359;BME280;73273;50.882;5.984;2023-12-20T00:37:26;100526.72;;;6.39;100.00
83359;BME280;73273;50.882;5.984;2023-12-20T00:39:51;100532.50;;;6.28;100.00
83359;BME280;73273;50.882;5.984;2023-12-20T00:42:17;100541.88;;;6.09;100.00
83359;BME280;73273;50.882;5.984;2023-12-20T00:44:42;100536.59;;;5.91;100.00
83359;BME280;73273;50.882;5.984;2023-12-20T00:47:07;100537.38;;;5.85;100.00
83359;BME280;73273;50.882;5.984;2023-12-20T00:49:33;100542.13;;;5.68;100.00
83359;BME280;73273;50.882;5.984;2023-12-20T00:51:58;100550.50;;;5.50;100.00
83359;BME280;73273;50.882;5.984;2023-12-20T00:54:24;100552.44;;;5.35;100.00
83359;BME280;73273;50.882;5.984;2023-12-20T00:56:49;100570.66;;;5.21;100.00
83359;BME280;73273;50.882;5.984;2023-12-20T00:59:16;100561.91;;;5.02;100.00
83359;BME280;73273;50.882;5.984;2023-12-20T01:01:41;100564.09;;;4.92;100.00
83359;BME280;73273;50.882;5.984;2023-12-20T01:04:07;100566.03;;;4.77;100.00
83359;BME280;73273;50.882;5.984;2023-12-20T01:06:32;100570.94;;;4.72;100.00
83359;BME280;73273;50.882;5.984;2023-12-20T01:08:58;100571.91;;;4.64;100.00
83359;BME280;73273;50.882;5.984;2023-12-20T01:11:23;100572.53;;;4.66;100.00
83359;BME280;73273;50.882;5.984;2023-12-20T01:13:48;100558.31;;;4.70;100.00
83359;BME280;73273;50.882;5.984;2023-12-20T01:16:14;100557.72;;;4.75;100.00
83359;BME280;73273;50.882;5.984;2023-12-20T01:18:39;100568.59;;;4.77;100.00
83359;BME280;73273;50.882;5.984;2023-12-20T01:21:05;100580.44;;;4.78;100.00
83359;BME280;73273;50.882;5.984;2023-12-20T01:23:31;100559.31;;;4.89;100.00
83359;BME280;73273;50.882;5.984;2023-12-20T01:25:57;100558.34;;;4.83;100.00
83359;BME280;73273;50.882;5.984;2023-12-20T01:28:24;100560.53;;;4.99;100.00
83359;BME280;73273;50.882;5.984;2023-12-20T01:30:50;100552.03;;;4.92;100.00
83359;BME280;73273;50.882;5.984;2023-12-20T01:33:15;100560.16;;;5.02;100.00
83359;BME280;73273;50.882;5.984;2023-12-20T01:35:40;100550.28;;;4.99;100.00
83359;BME280;73273;50.882;5.984;2023-12-20T01:38:06;100548.69;;;4.92;100.00
83359;BME280;73273;50.882;5.984;2023-12-20T01:40:32;100555.59;;;4.91;100.00
83359;BME280;73273;50.882;5.984;2023-12-20T01:42:58;100558.16;;;4.91;100.00
83359;BME280;73273;50.882;5.984;2023-12-20T01:45:24;100553.41;;;4.88;100.00
83359;BME280;73273;50.882;5.984;2023-12-20T01:47:50;100564.28;;;4.90;100.00
83359;BME280;73273;50.882;5.984;2023-12-20T01:50:15;100566.06;;;4.90;100.00
83359;BME280;73273;50.882;5.984;2023-12-20T01:52:43;100560.34;;;4.88;100.00
83359;BME280;73273;50.882;5.984;2023-12-20T01:55:08;100565.66;;;4.86;100.00
83359;BME280;73273;50.882;5.984;2023-12-20T01:57:40;100563.09;;;4.93;100.00
83359;BME280;73273;50.882;5.984;2023-12-20T02:00:06;100562.31;;;4.92;100.00
83359;BME280;73273;50.882;5.984;2023-12-20T02:02:32;100574.34;;;4.85;100.00
83359;BME280;73273;50.882;5.984;2023-12-20T02:04:58;100584.03;;;4.90;100.00
83359;BME280;73273;50.882;5.984;2023-12-20T02:07:24;100580.88;;;4.88;100.00
83359;BME280;73273;50.882;5.984;2023-12-20T02:09:50;100581.66;;;4.88;100.00
83359;BME280;73273;50.882;5.984;2023-12-20T02:12:15;100584.44;;;4.87;100.00
83359;BME280;73273;50.882;5.984;2023-12-20T02:14:41;100584.44;;;4.93;100.00
83359;BME280;73273;50.882;5.984;2023-12-20T02:17:06;100574.97;;;5.00;100.00
83359;BME280;73273;50.882;5.984;2023-12-20T02:19:32;100582.66;;;4.87;100.00
83359;BME280;73273;50.882;5.984;2023-12-20T02:22:10;100569.56;;;4.76;100.00
83359;BME280;73273;50.882;5.984;2023-12-20T02:24:36;100569.38;;;4.77;100.00
83359;BME280;73273;50.882;5.984;2023-12-20T02:27:01;100576.88;;;4.72;100.00
83359;BME280;73273;50.882;5.984;2023-12-20T02:29:27;100589.13;;;4.70;100.00
83359;BME280;73273;50.882;5.984;2023-12-20T02:31:52;100579.78;;;4.56;100.00
83359;BME280;73273;50.882;5.984;2023-12-20T02:34:17;100584.19;;;4.69;100.00
83359;BME280;73273;50.882;5.984;2023-12-20T02:36:43;100578.66;;;4.72;100.00
83359;BME280;73273;50.882;5.984;2023-12-20T02:39:08;100588.34;;;4.76;100.00
83359;BME280;73273;50.882;5.984;2023-12-20T02:41:34;100574.88;;;4.68;100.00
83359;BME280;73273;50.882;5.984;2023-12-20T02:43:59;100582.41;;;4.69;100.00
83359;BME280;73273;50.882;5.984;2023-12-20T02:46:24;100585.78;;;4.76;100.00
83359;BME280;73273;50.882;5.984;2023-12-20T02:48:50;100580.81;;;4.68;100.00
83359;BME280;73273;50.882;5.984;2023-12-20T02:51:15;100581.81;;;4.74;100.00
83359;BME280;73273;50.882;5.984;2023-12-20T02:53:40;100575.88;;;4.67;100.00
83359;BME280;73273;50.882;5.984;2023-12-20T02:56:06;100577.28;;;4.76;100.00
83359;BME280;73273;50.882;5.984;2023-12-20T02:58:31;100588.50;;;4.68;100.00
83359;BME280;73273;50.882;5.984;2023-12-20T03:00:56;100596.63;;;4.65;100.00
83359;BME280;73273;50.882;5.984;2023-12-20T03:03:22;100598.00;;;4.68;100.00
83359;BME280;73273;50.882;5.984;2023-12-20T03:05:47;100595.25;;;4.63;100.00
83359;BME280;73273;50.882;5.984;2023-12-20T03:08:12;100588.91;;;4.72;100.00
83359;BME280;73273;50.882;5.984;2023-12-20T03:10:38;100593.69;;;4.75;100.00
83359;BME280;73273;50.882;5.984;2023-12-20T03:13:03;100585.75;;;4.70;100.00
83359;BME280;73273;50.882;5.984;2023-12-20T03:15:29;100578.06;;;4.70;100.00
83359;BME280;73273;50.882;5.984;2023-12-20T03:17:54;100583.59;;;4.67;100.00
83359;BME280;73273;50.882;5.984;2023-12-20T03:20:20;100587.34;;;4.71;100.00
83359;BME280;73273;50.882;5.984;2023-12-20T03:22:45;100582.41;;;4.63;100.00
83359;BME280;73273;50.882;5.984;2023-12-20T03:25:10;100588.91;;;4.58;100.00
83359;BME280;73273;50.882;5.984;2023-12-20T03:27:39;100588.47;;;4.48;100.00
83359;BME280;73273;50.882;5.984;2023-12-20T03:30:05;100583.88;;;4.44;100.00
83359;BME280;73273;50.882;5.984;2023-12-20T03:32:31;100574.81;;;4.48;100.00
83359;BME280;73273;50.882;5.984;2023-12-20T03:34:56;100564.91;;;4.38;100.00
83359;BME280;73273;50.882;5.984;2023-12-20T03:37:22;100563.75;;;4.41;100.00
83359;BME280;73273;50.882;5.984;2023-12-20T03:39:48;100576.19;;;4.44;100.00
83359;BME280;73273;50.882;5.984;2023-12-20T03:42:13;100578.75;;;4.44;100.00
83359;BME280;73273;50.882;5.984;2023-12-20T03:44:39;100566.53;;;4.46;100.00
83359;BME280;73273;50.882;5.984;2023-12-20T03:47:05;100570.81;;;4.39;100.00
83359;BME280;73273;50.882;5.984;2023-12-20T03:49:31;100565.69;;;4.39;100.00
83359;BME280;73273;50.882;5.984;2023-12-20T03:51:56;100571.63;;;4.39;100.00
83359;BME280;73273;50.882;5.984;2023-12-20T03:54:21;100569.63;;;4.35;100.00
83359;BME280;73273;50.882;5.984;2023-12-20T03:56:47;100578.94;;;4.42;100.00
83359;BME280;73273;50.882;5.984;2023-12-20T03:59:12;100561.34;;;4.39;100.00
83359;BME280;73273;50.882;5.984;2023-12-20T04:01:37;100572.03;;;4.43;100.00
83359;BME280;73273;50.882;5.984;2023-12-20T04:04:03;100568.47;;;4.37;100.00
83359;BME280;73273;50.882;5.984;2023-12-20T04:06:28;100568.03;;;4.27;100.00
83359;BME280;73273;50.882;5.984;2023-12-20T04:08:54;100571.56;;;4.26;100.00
83359;BME280;73273;50.882;5.984;2023-12-20T04:11:19;100563.28;;;4.24;100.00
83359;BME280;73273;50.882;5.984;2023-12-20T04:13:45;100574.13;;;4.26;100.00
83359;BME280;73273;50.882;5.984;2023-12-20T04:16:10;100570.94;;;4.18;100.00
83359;BME280;73273;50.882;5.984;2023-12-20T04:18:35;100581.41;;;4.16;100.00
83359;BME280;73273;50.882;5.984;2023-12-20T04:21:01;100576.78;;;4.05;100.00
83359;BME280;73273;50.882;5.984;2023-12-20T04:23:27;100571.50;;;4.13;100.00
83359;BME280;73273;50.882;5.984;2023-12-20T04:25:53;100566.59;;;4.18;100.00
83359;BME280;73273;50.882;5.984;2023-12-20T04:28:18;100564.03;;;4.18;100.00
83359;BME280;73273;50.882;5.984;2023-12-20T04:30:43;100574.28;;;4.18;100.00
83359;BME280;73273;50.882;5.984;2023-12-20T04:33:09;100578.91;;;4.29;100.00
83359;BME280;73273;50.882;5.984;2023-12-20T04:35:34;100575.91;;;4.26;100.00
83359;BME280;73273;50.882;5.984;2023-12-20T04:38:00;100569.03;;;4.33;100.00
83359;BME280;73273;50.882;5.984;2023-12-20T04:40:25;100593.53;;;4.35;100.00
83359;BME280;73273;50.882;5.984;2023-12-20T04:42:50;100603.22;;;4.33;100.00
83359;BME280;73273;50.882;5.984;2023-12-20T04:45:16;100583.09;;;4.37;100.00
83359;BME280;73273;50.882;5.984;2023-12-20T04:47:43;100594.09;;;4.31;100.00
83359;BME280;73273;50.882;5.984;2023-12-20T04:50:08;100586.41;;;4.31;100.00
83359;BME280;73273;50.882;5.984;2023-12-20T04:52:35;100585.03;;;4.35;100.00
83359;BME280;73273;50.882;5.984;2023-12-20T04:55:00;100573.41;;;4.39;100.00
83359;BME280;73273;50.882;5.984;2023-12-20T04:57:26;100588.63;;;4.40;100.00
83359;BME280;73273;50.882;5.984;2023-12-20T04:59:51;100577.56;;;4.40;100.00
83359;BME280;73273;50.882;5.984;2023-12-20T05:02:17;100589.44;;;4.47;100.00
83359;BME280;73273;50.882;5.984;2023-12-20T05:04:42;100585.88;;;4.48;100.00
83359;BME280;73273;50.882;5.984;2023-12-20T05:07:07;100598.53;;;4.50;100.00
83359;BME280;73273;50.882;5.984;2023-12-20T05:09:33;100582.34;;;4.49;100.00
83359;BME280;73273;50.882;5.984;2023-12-20T05:11:58;100587.50;;;4.56;100.00
83359;BME280;73273;50.882;5.984;2023-12-20T05:14:24;100579.19;;;4.54;100.00
83359;BME280;73273;50.882;5.984;2023-12-20T05:16:50;100574.63;;;4.49;100.00
83359;BME280;73273;50.882;5.984;2023-12-20T05:19:15;100584.28;;;4.47;100.00
83359;BME280;73273;50.882;5.984;2023-12-20T05:21:40;100583.13;;;4.50;100.00
83359;BME280;73273;50.882;5.984;2023-12-20T05:24:06;100583.91;;;4.50;100.00
83359;BME280;73273;50.882;5.984;2023-12-20T05:26:31;100586.69;;;4.55;100.00
83359;BME280;73273;50.882;5.984;2023-12-20T05:28:56;100581.38;;;4.57;100.00
83359;BME280;73273;50.882;5.984;2023-12-20T05:31:22;100573.28;;;4.53;100.00
83359;BME280;73273;50.882;5.984;2023-12-20T05:33:47;100568.13;;;4.53;100.00
83359;BME280;73273;50.882;5.984;2023-12-20T05:36:12;100577.00;;;4.51;100.00
83359;BME280;73273;50.882;5.984;2023-12-20T05:38:40;100578.75;;;4.44;100.00
83359;BME280;73273;50.882;5.984;2023-12-20T05:41:05;100573.44;;;4.45;100.00
83359;BME280;73273;50.882;5.984;2023-12-20T05:43:31;100573.63;;;4.50;100.00
83359;BME280;73273;50.882;5.984;2023-12-20T05:45:56;100553.25;;;4.42;100.00
83359;BME280;73273;50.882;5.984;2023-12-20T05:48:21;100576.81;;;4.46;100.00
83359;BME280;73273;50.882;5.984;2023-12-20T05:50:47;100566.09;;;4.42;100.00
83359;BME280;73273;50.882;5.984;2023-12-20T05:53:13;100585.72;;;4.50;100.00
83359;BME280;73273;50.882;5.984;2023-12-20T05:55:39;100584.69;;;4.51;100.00
83359;BME280;73273;50.882;5.984;2023-12-20T05:58:04;100580.81;;;4.61;100.00
83359;BME280;73273;50.882;5.984;2023-12-20T06:00:30;100577.56;;;4.46;100.00
83359;BME280;73273;50.882;5.984;2023-12-20T06:02:56;100573.41;;;4.39;100.00
83359;BME280;73273;50.882;5.984;2023-12-20T06:05:22;100590.56;;;4.38;100.00
83359;BME280;73273;50.882;5.984;2023-12-20T06:07:47;100588.22;;;4.37;100.00
83359;BME280;73273;50.882;5.984;2023-12-20T06:10:13;100587.66;;;4.41;100.00
83359;BME280;73273;50.882;5.984;2023-12-20T06:12:39;100583.66;;;4.39;100.00
83359;BME280;73273;50.882;5.984;2023-12-20T06:15:05;100592.56;;;4.36;100.00
83359;BME280;73273;50.882;5.984;2023-12-20T06:17:31;100592.72;;;4.35;100.00
83359;BME280;73273;50.882;5.984;2023-12-20T06:19:56;100596.25;;;4.27;100.00
83359;BME280;73273;50.882;5.984;2023-12-20T06:22:22;100598.03;;;4.27;100.00
83359;BME280;73273;50.882;5.984;2023-12-20T06:24:47;100603.34;;;4.25;100.00
83359;BME280;73273;50.882;5.984;2023-12-20T06:27:13;100598.25;;;4.32;100.00
83359;BME280;73273;50.882;5.984;2023-12-20T06:29:38;100600.03;;;4.31;100.00
83359;BME280;73273;50.882;5.984;2023-12-20T06:32:04;100594.88;;;4.31;100.00
83359;BME280;73273;50.882;5.984;2023-12-20T06:34:29;100601.22;;;4.35;100.00
83359;BME280;73273;50.882;5.984;2023-12-20T06:36:55;100606.19;;;4.37;100.00
83359;BME280;73273;50.882;5.984;2023-12-20T06:39:20;100597.47;;;4.31;100.00
83359;BME280;73273;50.882;5.984;2023-12-20T06:41:45;100615.25;;;4.33;100.00
83359;BME280;73273;50.882;5.984;2023-12-20T06:44:11;100599.28;;;4.37;100.00
83359;BME280;73273;50.882;5.984;2023-12-20T06:46:36;100606.34;;;4.29;100.00
83359;BME280;73273;50.882;5.984;2023-12-20T06:49:02;100610.13;;;4.33;100.00
83359;BME280;73273;50.882;5.984;2023-12-20T06:51:27;100622.94;;;4.33;100.00
83359;BME280;73273;50.882;5.984;2023-12-20T06:53:53;100631.06;;;4.36;100.00
83359;BME280;73273;50.882;5.984;2023-12-20T06:56:18;100619.19;;;4.35;100.00
83359;BME280;73273;50.882;5.984;2023-12-20T06:58:43;100627.72;;;4.42;100.00
83359;BME280;73273;50.882;5.984;2023-12-20T07:01:13;100610.91;;;4.33;100.00
83359;BME280;73273;50.882;5.984;2023-12-20T07:03:38;100594.25;;;4.23;100.00
83359;BME280;73273;50.882;5.984;2023-12-20T07:06:04;100613.47;;;4.33;100.00
83359;BME280;73273;50.882;5.984;2023-12-20T07:08:30;100620.38;;;4.33;100.00
83359;BME280;73273;50.882;5.984;2023-12-20T07:10:55;100610.06;;;4.26;100.00
83359;BME280;73273;50.882;5.984;2023-12-20T07:13:20;100601.16;;;4.22;100.00
83359;BME280;73273;50.882;5.984;2023-12-20T07:15:47;100609.63;;;4.16;100.00
83359;BME280;73273;50.882;5.984;2023-12-20T07:18:12;100604.06;;;4.12;100.00
83359;BME280;73273;50.882;5.984;2023-12-20T07:20:38;100598.91;;;4.06;100.00
83359;BME280;73273;50.882;5.984;2023-12-20T07:23:03;100604.59;;;4.01;100.00
83359;BME280;73273;50.882;5.984;2023-12-20T07:25:28;100607.72;;;3.97;100.00
83359;BME280;73273;50.882;5.984;2023-12-20T07:27:55;100598.44;;;3.96;100.00
83359;BME280;73273;50.882;5.984;2023-12-20T07:30:20;100608.28;;;3.92;100.00
83359;BME280;73273;50.882;5.984;2023-12-20T07:32:46;100601.38;;;3.93;100.00
83359;BME280;73273;50.882;5.984;2023-12-20T07:35:12;100604.34;;;3.96;100.00
83359;BME280;73273;50.882;5.984;2023-12-20T07:37:37;100598.63;;;3.94;100.00
83359;BME280;73273;50.882;5.984;2023-12-20T07:40:03;100597.22;;;3.92;100.00
83359;BME280;73273;50.882;5.984;2023-12-20T07:42:28;100602.16;;;3.87;100.00
83359;BME280;73273;50.882;5.984;2023-12-20T07:44:54;100600.94;;;3.83;100.00
83359;BME280;73273;50.882;5.984;2023-12-20T07:47:20;100595.66;;;3.91;100.00
83359;BME280;73273;50.882;5.984;2023-12-20T07:49:48;100596.63;;;3.90;100.00
83359;BME280;73273;50.882;5.984;2023-12-20T07:52:13;100589.31;;;3.87;100.00
83359;BME280;73273;50.882;5.984;2023-12-20T07:54:39;100593.84;;;3.85;100.00
83359;BME280;73273;50.882;5.984;2023-12-20T07:57:05;100586.31;;;3.83;100.00
83359;BME280;73273;50.882;5.984;2023-12-20T07:59:30;100591.09;;;3.86;100.00
83359;BME280;73273;50.882;5.984;2023-12-20T08:01:56;100593.44;;;3.88;100.00
83359;BME280;73273;50.882;5.984;2023-12-20T08:04:21;100600.59;;;3.92;100.00
83359;BME280;73273;50.882;5.984;2023-12-20T08:06:47;100595.88;;;3.96;100.00
83359;BME280;73273;50.882;5.984;2023-12-20T08:09:12;100598.44;;;3.96;100.00
83359;BME280;73273;50.882;5.984;2023-12-20T08:11:38;100607.38;;;4.06;100.00
83359;BME280;73273;50.882;5.984;2023-12-20T08:14:03;100600.50;;;4.07;100.00
83359;BME280;73273;50.882;5.984;2023-12-20T08:16:28;100606.13;;;3.96;100.00
83359;BME280;73273;50.882;5.984;2023-12-20T08:18:54;100599.84;;;3.98;100.00
83359;BME280;73273;50.882;5.984;2023-12-20T08:21:19;100598.25;;;3.97;100.00
83359;BME280;73273;50.882;5.984;2023-12-20T08:23:47;100593.53;;;4.01;100.00
83359;BME280;73273;50.882;5.984;2023-12-20T08:26:13;100599.06;;;4.04;100.00
83359;BME280;73273;50.882;5.984;2023-12-20T08:28:38;100581.31;;;4.03;100.00
83359;BME280;73273;50.882;5.984;2023-12-20T08:31:03;100586.06;;;4.06;100.00
83359;BME280;73273;50.882;5.984;2023-12-20T08:33:29;100593.78;;;4.06;100.00
83359;BME280;73273;50.882;5.984;2023-12-20T08:35:54;100590.22;;;4.07;100.00
83359;BME280;73273;50.882;5.984;2023-12-20T08:38:20;100588.63;;;4.06;100.00
83359;BME280;73273;50.882;5.984;2023-12-20T08:40:45;100619.13;;;4.22;100.00
83359;BME280;73273;50.882;5.984;2023-12-20T08:43:10;100616.94;;;4.19;100.00
83359;BME280;73273;50.882;5.984;2023-12-20T08:45:36;100615.97;;;4.20;100.00
83359;BME280;73273;50.882;5.984;2023-12-20T08:48:02;100622.06;;;4.19;100.00
83359;BME280;73273;50.882;5.984;2023-12-20T08:50:28;100633.97;;;4.27;100.00
83359;BME280;73273;50.882;5.984;2023-12-20T08:52:54;100637.56;;;4.32;100.00
83359;BME280;73273;50.882;5.984;2023-12-20T08:55:19;100640.13;;;4.39;100.00
83359;BME280;73273;50.882;5.984;2023-12-20T08:57:45;100636.81;;;4.45;100.00
83359;BME280;73273;50.882;5.984;2023-12-20T09:00:11;100627.34;;;4.45;100.00
83359;BME280;73273;50.882;5.984;2023-12-20T09:02:36;100628.78;;;4.54;100.00
83359;BME280;73273;50.882;5.984;2023-12-20T09:05:03;100630.50;;;4.47;100.00
83359;BME280;73273;50.882;5.984;2023-12-20T09:07:28;100617.28;;;4.50;100.00
83359;BME280;73273;50.882;5.984;2023-12-20T09:09:56;100615.50;;;4.44;100.00
83359;BME280;73273;50.882;5.984;2023-12-20T09:12:22;100602.66;;;4.51;100.00
83359;BME280;73273;50.882;5.984;2023-12-20T09:14:49;100608.44;;;4.53;100.00
83359;BME280;73273;50.882;5.984;2023-12-20T09:17:15;100611.56;;;4.48;100.00
83359;BME280;73273;50.882;5.984;2023-12-20T09:19:42;100613.56;;;4.53;100.00
83359;BME280;73273;50.882;5.984;2023-12-20T09:22:09;100613.22;;;4.63;100.00
83359;BME280;73273;50.882;5.984;2023-12-20T09:24:34;100605.13;;;4.66;100.00
83359;BME280;73273;50.882;5.984;2023-12-20T09:27:00;100594.84;;;4.66;100.00
83359;BME280;73273;50.882;5.984;2023-12-20T09:29:25;100595.81;;;4.65;100.00
83359;BME280;73273;50.882;5.984;2023-12-20T09:31:50;100587.13;;;4.66;100.00
83359;BME280;73273;50.882;5.984;2023-12-20T09:34:16;100580.03;;;4.68;100.00
83359;BME280;73273;50.882;5.984;2023-12-20T09:36:43;100595.47;;;4.74;100.00
83359;BME280;73273;50.882;5.984;2023-12-20T09:39:17;100592.09;;;4.74;100.00
83359;BME280;73273;50.882;5.984;2023-12-20T09:41:51;100605.91;;;4.73;100.00
83359;BME280;73273;50.882;5.984;2023-12-20T09:44:20;100601.63;;;4.80;100.00
83359;BME280;73273;50.882;5.984;2023-12-20T09:46:49;100622.34;;;4.85;100.00
83359;BME280;73273;50.882;5.984;2023-12-20T09:49:19;100604.19;;;4.86;100.00
83359;BME280;73273;50.882;5.984;2023-12-20T09:51:46;100608.75;;;4.97;100.00
83359;BME280;73273;50.882;5.984;2023-12-20T09:54:14;100603.81;;;4.96;100.00
83359;BME280;73273;50.882;5.984;2023-12-20T09:56:39;100606.97;;;4.98;100.00
83359;BME280;73273;50.882;5.984;2023-12-20T09:59:04;100607.59;;;5.00;100.00
83359;BME280;73273;50.882;5.984;2023-12-20T10:01:30;100604.00;;;4.94;100.00
83359;BME280;73273;50.882;5.984;2023-12-20T10:03:57;100596.69;;;4.98;100.00
83359;BME280;73273;50.882;5.984;2023-12-20T10:06:25;100612.16;;;5.04;100.00
83359;BME280;73273;50.882;5.984;2023-12-20T10:08:50;100609.53;;;4.98;100.00
83359;BME280;73273;50.882;5.984;2023-12-20T10:11:16;100602.06;;;4.96;100.00
83359;BME280;73273;50.882;5.984;2023-12-20T10:13:45;100603.44;;;4.99;100.00
83359;BME280;73273;50.882;5.984;2023-12-20T10:16:12;100597.09;;;4.95;100.00
83359;BME280;73273;50.882;5.984;2023-12-20T10:18:37;100592.97;;;5.07;100.00
83359;BME280;73273;50.882;5.984;2023-12-20T10:21:03;100590.41;;;5.20;100.00
83359;BME280;73273;50.882;5.984;2023-12-20T10:23:29;100571.06;;;5.37;100.00
83359;BME280;73273;50.882;5.984;2023-12-20T10:25:59;100561.34;;;5.39;100.00
83359;BME280;73273;50.882;5.984;2023-12-20T10:28:25;100572.22;;;5.35;100.00
83359;BME280;73273;50.882;5.984;2023-12-20T10:30:54;100573.22;;;5.40;100.00
83359;BME280;73273;50.882;5.984;2023-12-20T10:33:30;100566.72;;;5.38;100.00
83359;BME280;73273;50.882;5.984;2023-12-20T10:35:57;100568.88;;;5.34;100.00
83359;BME280;73273;50.882;5.984;2023-12-20T10:38:23;100551.06;;;5.33;100.00
83359;BME280;73273;50.882;5.984;2023-12-20T10:40:49;100564.94;;;5.38;100.00
83359;BME280;73273;50.882;5.984;2023-12-20T10:43:19;100555.03;;;5.42;100.00
83359;BME280;73273;50.882;5.984;2023-12-20T10:45:45;100556.81;;;5.35;100.00
83359;BME280;73273;50.882;5.984;2023-12-20T10:48:10;100557.97;;;5.39;100.00
83359;BME280;73273;50.882;5.984;2023-12-20T10:50:37;100567.09;;;5.41;100.00
83359;BME280;73273;50.882;5.984;2023-12-20T10:53:06;100574.22;;;5.39;100.00
83359;BME280;73273;50.882;5.984;2023-12-20T10:55:32;100564.91;;;5.32;100.00
83359;BME280;73273;50.882;5.984;2023-12-20T10:58:03;100571.25;;;5.29;100.00
83359;BME280;73273;50.882;5.984;2023-12-20T11:00:32;100575.59;;;5.35;100.00
83359;BME280;73273;50.882;5.984;2023-12-20T11:03:00;100561.75;;;5.30;100.00
83359;BME280;73273;50.882;5.984;2023-12-20T11:10:34;100566.09;;;5.55;100.00
83359;BME280;73273;50.882;5.984;2023-12-20T11:13:22;100554.63;;;5.58;100.00
83359;BME280;73273;50.882;5.984;2023-12-20T11:15:49;100548.88;;;5.56;100.00
83359;BME280;73273;50.882;5.984;2023-12-20T11:18:15;100544.16;;;5.60;100.00
83359;BME280;73273;50.882;5.984;2023-12-20T11:20:43;100529.69;;;5.59;100.00
83359;BME280;73273;50.882;5.984;2023-12-20T11:23:09;100536.22;;;5.68;100.00
83359;BME280;73273;50.882;5.984;2023-12-20T11:25:55;100536.63;;;5.58;100.00
83359;BME280;73273;50.882;5.984;2023-12-20T11:28:23;100538.00;;;5.61;100.00
83359;BME280;73273;50.882;5.984;2023-12-20T11:30:53;100532.84;;;5.61;100.00
83359;BME280;73273;50.882;5.984;2023-12-20T11:33:26;100543.34;;;5.59;100.00
83359;BME280;73273;50.882;5.984;2023-12-20T11:35:55;100538.78;;;5.61;100.00
83359;BME280;73273;50.882;5.984;2023-12-20T11:38:21;100535.81;;;5.64;100.00
83359;BME280;73273;50.882;5.984;2023-12-20T11:40:49;100548.66;;;5.64;100.00
83359;BME280;73273;50.882;5.984;2023-12-20T11:43:31;100553.25;;;5.62;100.00
83359;BME280;73273;50.882;5.984;2023-12-20T11:46:04;100537.81;;;5.62;100.00
83359;BME280;73273;50.882;5.984;2023-12-20T11:48:30;100543.75;;;5.63;100.00
83359;BME280;73273;50.882;5.984;2023-12-20T11:50:57;100537.81;;;5.55;100.00
83359;BME280;73273;50.882;5.984;2023-12-20T11:53:22;100524.75;;;5.57;100.00
83359;BME280;73273;50.882;5.984;2023-12-20T11:55:50;100536.81;;;5.63;100.00
83359;BME280;73273;50.882;5.984;2023-12-20T11:58:16;100526.34;;;5.58;100.00
83359;BME280;73273;50.882;5.984;2023-12-20T12:00:42;100520.59;;;5.56;100.00
83359;BME280;73273;50.882;5.984;2023-12-20T12:03:14;100508.75;;;5.55;100.00
83359;BME280;73273;50.882;5.984;2023-12-20T12:05:39;100506.56;;;5.59;100.00
83359;BME280;73273;50.882;5.984;2023-12-20T12:08:05;100497.06;;;5.59;100.00
83359;BME280;73273;50.882;5.984;2023-12-20T12:10:31;100497.84;;;5.60;100.00
83359;BME280;73273;50.882;5.984;2023-12-20T12:12:56;100494.28;;;5.67;100.00
83359;BME280;73273;50.882;5.984;2023-12-20T12:15:21;100499.59;;;5.66;100.00
83359;BME280;73273;50.882;5.984;2023-12-20T12:17:54;100492.31;;;5.63;100.00
83359;BME280;73273;50.882;5.984;2023-12-20T12:20:20;100492.50;;;5.61;100.00
83359;BME280;73273;50.882;5.984;2023-12-20T12:22:46;100490.91;;;5.60;100.00
83359;BME280;73273;50.882;5.984;2023-12-20T12:25:16;100494.69;;;5.58;100.00
83359;BME280;73273;50.882;5.984;2023-12-20T12:27:42;100503.75;;;5.60;100.00
83359;BME280;73273;50.882;5.984;2023-12-20T12:30:09;100499.41;;;5.61;100.00
83359;BME280;73273;50.882;5.984;2023-12-20T12:32:35;100495.88;;;5.55;100.00
83359;BME280;73273;50.882;5.984;2023-12-20T12:35:03;100497.06;;;5.59;100.00
83359;BME280;73273;50.882;5.984;2023-12-20T12:37:29;100491.50;;;5.55;100.00
83359;BME280;73273;50.882;5.984;2023-12-20T12:39:55;100493.47;;;5.60;100.00
83359;BME280;73273;50.882;5.984;2023-12-20T12:42:20;100478.88;;;5.54;100.00
83359;BME280;73273;50.882;5.984;2023-12-20T12:44:46;100471.34;;;5.59;100.00
83359;BME280;73273;50.882;5.984;2023-12-20T12:47:12;100469.16;;;5.56;100.00
83359;BME280;73273;50.882;5.984;2023-12-20T12:49:37;100463.44;;;5.54;100.00